Time;durP1;ratioP1;P1;durP2;ratioP2;P2;SDS_P1;SDS_P2;PMS_P1;PMS_P2;Temp;Humidity;BMP_temperature;BMP_pressure;BME280_temperature;BME280_humidity;BME280_pressure;Samples;Min_cycle;Max_cycle;Signal;HPM_P1;HPM_P2
2021/01/21 00:01:36;;;;;;;;;;;;;;;3.60;84.50;96998.63;5047636;28;19921;-75
2021/01/21 00:04:01;;;;;;;;;;;;;;;3.61;84.61;96994.16;5045429;28;19917;-76
2021/01/21 00:06:26;;;;;;;;;;;;;;;3.61;84.90;96986.22;5044535;28;19929;-75
2021/01/21 00:08:52;;;;;;;;;;;;;;;3.62;84.81;96986.00;5049065;28;19921;-72
2021/01/21 00:11:17;;;;;;;;;;;;;;;3.63;84.78;96968.31;5045364;28;19935;-73
2021/01/21 00:13:42;;;;;;;;;;;;;;;3.65;84.89;96984.69;5045277;28;20000;-74
2021/01/21 00:16:07;;;;;;;;;;;;;;;3.67;84.69;96961.47;5038830;28;20588;-71
2021/01/21 00:18:33;;;;;;;;;;;;;;;3.69;84.88;96959.41;5041179;28;20379;-73
2021/01/21 00:20:58;;;;;;;;;;;;;;;3.71;85.27;96949.41;5044129;28;19943;-75
2021/01/21 00:23:23;;;;;;;;;;;;;;;3.73;85.13;96936.75;5044099;28;19971;-75
2021/01/21 00:25:50;;;;;;;;;;;;;;;3.75;85.03;96932.03;5046228;28;19921;-72
2021/01/21 00:28:16;;;;;;;;;;;;;;;3.77;85.20;96927.28;5038416;28;20304;-71
2021/01/21 00:30:41;;;;;;;;;;;;;;;3.80;85.47;96926.78;5047913;28;19962;-73
2021/01/21 00:33:06;;;;;;;;;;;;;;;3.82;84.78;96919.44;5044891;28;19925;-75
2021/01/21 00:35:32;;;;;;;;;;;;;;;3.86;84.53;96917.88;5046049;28;19979;-71
2021/01/21 00:37:57;;;;;;;;;;;;;;;3.88;84.72;96921.03;5049538;28;19925;-74
2021/01/21 00:40:22;;;;;;;;;;;;;;;3.91;84.92;96909.97;5051406;28;19971;-76
2021/01/21 00:42:48;;;;;;;;;;;;;;;3.93;84.46;96918.47;5052065;28;19920;-76
2021/01/21 00:45:13;;;;;;;;;;;;;;;3.96;84.93;96906.56;5043663;28;20394;-73
2021/01/21 00:47:38;;;;;;;;;;;;;;;3.98;84.88;96897.34;5049702;28;19966;-74
2021/01/21 00:50:04;;;;;;;;;;;;;;;4.01;84.83;96899.50;5052525;28;19920;-76
2021/01/21 00:52:29;;;;;;;;;;;;;;;4.04;83.81;96896.34;5051272;28;20401;-73
2021/01/21 00:54:54;;;;;;;;;;;;;;;4.05;83.90;96911.13;5042292;28;20593;-73
2021/01/21 00:57:19;;;;;;;;;;;;;;;4.07;84.02;96898.47;5043048;28;20472;-71
2021/01/21 00:59:45;;;;;;;;;;;;;;;4.09;83.60;96899.00;5048439;28;20340;-74
2021/01/21 01:02:10;;;;;;;;;;;;;;;4.11;83.67;96896.91;5046993;28;20025;-74
2021/01/21 01:04:35;;;;;;;;;;;;;;;4.14;83.43;96903.53;5052472;28;19923;-72
2021/01/21 01:07:00;;;;;;;;;;;;;;;4.17;83.66;96898.53;5045387;28;19929;-72
2021/01/21 01:09:26;;;;;;;;;;;;;;;4.17;83.50;96892.47;5051814;28;20341;-74
2021/01/21 01:11:51;;;;;;;;;;;;;;;4.18;83.09;96889.56;5045514;28;19916;-74
2021/01/21 01:14:16;;;;;;;;;;;;;;;4.19;83.47;96888.53;5047116;28;19924;-72
2021/01/21 01:16:42;;;;;;;;;;;;;;;4.22;83.23;96887.19;5046982;28;19916;-74
2021/01/21 01:19:07;;;;;;;;;;;;;;;4.21;83.18;96883.78;5045782;28;19925;-74
2021/01/21 01:21:32;;;;;;;;;;;;;;;4.22;82.82;96890.63;5066298;28;19928;-72
2021/01/21 01:23:57;;;;;;;;;;;;;;;4.24;83.08;96872.69;5047036;28;20107;-73
2021/01/21 01:26:23;;;;;;;;;;;;;;;4.24;82.77;96885.91;5045766;28;20404;-72
2021/01/21 01:28:48;;;;;;;;;;;;;;;4.25;83.37;96890.13;5046092;28;20266;-72
2021/01/21 01:31:14;;;;;;;;;;;;;;;4.27;82.75;96881.97;5044985;28;19925;-72
2021/01/21 01:33:39;;;;;;;;;;;;;;;4.26;82.45;96875.88;5044232;28;19920;-75
2021/01/21 01:36:04;;;;;;;;;;;;;;;4.26;83.20;96877.75;5050191;28;19916;-75
2021/01/21 01:38:30;;;;;;;;;;;;;;;4.28;82.54;96873.78;5050000;28;19921;-73
2021/01/21 01:40:55;;;;;;;;;;;;;;;4.29;82.42;96875.38;5049830;28;21508;-73
2021/01/21 01:43:20;;;;;;;;;;;;;;;4.29;83.17;96879.84;5051071;28;19936;-72
2021/01/21 01:45:45;;;;;;;;;;;;;;;4.28;82.57;96865.84;5051070;28;19955;-74
2021/01/21 01:48:11;;;;;;;;;;;;;;;4.28;82.81;96873.00;5051637;28;20004;-75
2021/01/21 01:50:36;;;;;;;;;;;;;;;4.30;83.01;96876.19;5053649;28;19928;-76
2021/01/21 01:53:01;;;;;;;;;;;;;;;4.30;82.94;96876.19;5048761;28;20403;-75
2021/01/21 01:55:27;;;;;;;;;;;;;;;4.28;82.40;96860.56;5051390;28;19958;-75
2021/01/21 01:57:53;;;;;;;;;;;;;;;4.26;82.18;96853.97;5051614;28;20003;-72
2021/01/21 02:00:19;;;;;;;;;;;;;;;4.29;82.45;96864.81;5044504;28;19921;-72
2021/01/21 02:02:48;;;;;;;;;;;;;;;4.28;82.02;96846.59;5050506;28;19917;-73
2021/01/21 02:05:13;;;;;;;;;;;;;;;4.29;82.28;96853.44;5047828;28;20409;-75
2021/01/21 02:07:38;;;;;;;;;;;;;;;4.28;82.23;96857.16;5042617;28;19917;-73
2021/01/21 02:10:04;;;;;;;;;;;;;;;4.29;82.44;96848.16;5050623;28;20019;-74
2021/01/21 02:12:58;;;;;;;;;;;;;;;4.25;82.44;96837.34;5037792;28;19980;-71
2021/01/21 02:15:39;;;;;;;;;;;;;;;4.23;82.26;96844.72;5038020;28;19920;-71
2021/01/21 02:18:12;;;;;;;;;;;;;;;4.23;81.72;96836.81;5045938;28;19924;-72
2021/01/21 02:20:51;;;;;;;;;;;;;;;4.24;81.90;96834.94;5050094;28;19928;-72
2021/01/21 02:23:27;;;;;;;;;;;;;;;4.24;81.50;96837.56;5049781;28;19927;-75
2021/01/21 02:25:55;;;;;;;;;;;;;;;4.23;81.66;96831.53;5050719;28;19967;-75
2021/01/21 02:28:32;;;;;;;;;;;;;;;4.22;81.76;96826.47;5049198;28;20432;-72
2021/01/21 02:31:02;;;;;;;;;;;;;;;4.21;81.22;96823.06;5042692;28;19925;-73
2021/01/21 02:33:46;;;;;;;;;;;;;;;4.20;81.27;96818.81;5049138;28;19921;-75
2021/01/21 02:36:15;;;;;;;;;;;;;;;4.21;81.59;96804.59;5050374;28;19955;-76
2021/01/21 02:38:42;;;;;;;;;;;;;;;4.20;81.58;96797.69;5044489;28;20007;-73
2021/01/21 02:41:07;;;;;;;;;;;;;;;4.18;81.36;96794.53;5045479;28;19916;-71
2021/01/21 02:43:33;;;;;;;;;;;;;;;4.19;80.83;96797.97;5047424;28;19917;-75
2021/01/21 02:45:58;;;;;;;;;;;;;;;4.18;81.34;96785.81;5041949;28;19928;-75
2021/01/21 02:48:23;;;;;;;;;;;;;;;4.18;81.70;96788.44;5050601;28;19974;-73
2021/01/21 02:50:50;;;;;;;;;;;;;;;4.16;81.00;96772.88;5027296;28;19921;-72
2021/01/21 02:53:16;;;;;;;;;;;;;;;4.14;81.20;96763.63;5044815;28;19971;-72
2021/01/21 02:55:41;;;;;;;;;;;;;;;4.13;80.88;96765.47;5046612;28;19965;-75
2021/01/21 02:58:06;;;;;;;;;;;;;;;4.14;81.50;96758.34;5045864;28;19924;-74
2021/01/21 03:00:32;;;;;;;;;;;;;;;4.11;81.43;96759.66;5042538;28;20007;-71
2021/01/21 03:02:59;;;;;;;;;;;;;;;4.09;81.29;96763.59;5045444;28;20363;-75
2021/01/21 03:05:25;;;;;;;;;;;;;;;4.07;80.74;96766.50;5043207;28;19917;-75
2021/01/21 03:07:51;;;;;;;;;;;;;;;4.03;80.30;96770.72;5047551;28;20439;-72
2021/01/21 03:10:18;;;;;;;;;;;;;;;3.98;79.99;96768.03;5041384;28;20019;-73
2021/01/21 03:12:43;;;;;;;;;;;;;;;3.96;79.70;96764.88;5046559;28;20397;-73
2021/01/21 03:15:08;;;;;;;;;;;;;;;3.96;80.21;96753.50;5045345;28;19921;-77
2021/01/21 03:17:34;;;;;;;;;;;;;;;3.94;79.79;96752.97;5044968;28;19994;-75
2021/01/21 03:19:59;;;;;;;;;;;;;;;3.92;79.86;96747.97;5047798;28;19920;-76
2021/01/21 03:22:24;;;;;;;;;;;;;;;3.91;80.28;96735.81;5044868;28;19925;-75
2021/01/21 03:24:49;;;;;;;;;;;;;;;3.91;80.43;96733.16;5042881;28;19917;-73
2021/01/21 03:27:15;;;;;;;;;;;;;;;3.89;79.47;96721.31;5045938;28;20035;-73
2021/01/21 03:29:40;;;;;;;;;;;;;;;3.87;79.89;96710.22;5043336;28;19936;-74
2021/01/21 03:32:05;;;;;;;;;;;;;;;3.87;79.95;96713.63;5046167;28;19921;-72
2021/01/21 03:34:31;;;;;;;;;;;;;;;3.87;80.11;96703.06;5040848;28;19925;-72
2021/01/21 03:36:56;;;;;;;;;;;;;;;3.87;80.44;96700.44;5047724;28;19933;-74
2021/01/21 03:39:21;;;;;;;;;;;;;;;3.88;80.23;96694.13;5046330;28;20008;-71
2021/01/21 03:41:50;;;;;;;;;;;;;;;3.88;80.33;96699.41;5047584;28;19967;-72
2021/01/21 03:44:16;;;;;;;;;;;;;;;3.87;80.84;96713.63;5045693;28;20007;-72
2021/01/21 03:46:41;;;;;;;;;;;;;;;3.88;80.23;96703.88;5046835;28;20015;-72
2021/01/21 03:49:06;;;;;;;;;;;;;;;3.88;80.40;96699.41;5034211;28;19920;-76
2021/01/21 03:51:31;;;;;;;;;;;;;;;3.90;80.17;96699.94;5041055;28;19921;-71
2021/01/21 03:53:57;;;;;;;;;;;;;;;3.91;80.27;96701.50;5040534;28;19982;-71
2021/01/21 03:56:22;;;;;;;;;;;;;;;3.91;80.72;96688.31;5044526;28;19921;-73
2021/01/21 03:58:47;;;;;;;;;;;;;;;3.91;80.47;96693.59;5044190;28;19921;-73
2021/01/21 04:01:12;;;;;;;;;;;;;;;3.91;80.50;96683.03;5042966;28;19921;-71
2021/01/21 04:03:38;;;;;;;;;;;;;;;3.92;80.78;96679.34;5046014;28;19966;-73
2021/01/21 04:06:03;;;;;;;;;;;;;;;3.93;80.58;96672.25;5044262;28;19917;-71
2021/01/21 04:08:28;;;;;;;;;;;;;;;3.92;80.29;96660.88;5039192;28;19917;-73
2021/01/21 04:10:53;;;;;;;;;;;;;;;3.92;80.71;96654.81;5046183;28;19951;-73
2021/01/21 04:13:19;;;;;;;;;;;;;;;3.90;80.52;96647.16;5045373;28;19921;-75
2021/01/21 04:15:46;;;;;;;;;;;;;;;3.89;79.86;96640.28;5046079;28;19928;-70
2021/01/21 04:18:11;;;;;;;;;;;;;;;3.86;80.12;96643.47;5039252;28;19917;-75
2021/01/21 04:20:36;;;;;;;;;;;;;;;3.86;79.79;96647.94;5042198;28;19955;-75
2021/01/21 04:23:02;;;;;;;;;;;;;;;3.85;79.81;96648.97;5044160;28;19921;-75
2021/01/21 04:25:27;;;;;;;;;;;;;;;3.82;79.69;96642.41;5044834;28;19925;-75
2021/01/21 04:27:52;;;;;;;;;;;;;;;3.80;79.91;96642.63;5037956;28;19916;-76
2021/01/21 04:30:18;;;;;;;;;;;;;;;3.83;79.50;96632.59;5045705;28;19979;-76
2021/01/21 04:32:43;;;;;;;;;;;;;;;3.83;79.77;96637.88;5046809;28;19921;-74
2021/01/21 04:35:09;;;;;;;;;;;;;;;3.81;80.11;96630.25;5045642;28;20576;-71
2021/01/21 04:37:34;;;;;;;;;;;;;;;3.79;79.76;96621.78;5046171;28;19924;-72
2021/01/21 04:39:59;;;;;;;;;;;;;;;3.78;80.13;96615.72;5047824;28;20011;-73
2021/01/21 04:42:24;;;;;;;;;;;;;;;3.78;79.74;96615.72;5044593;28;20050;-75
2021/01/21 04:44:50;;;;;;;;;;;;;;;3.76;79.96;96596.72;5047062;28;19944;-77
2021/01/21 04:47:16;;;;;;;;;;;;;;;3.77;79.89;96600.97;5046427;28;19928;-74
2021/01/21 04:49:41;;;;;;;;;;;;;;;3.79;80.11;96600.69;5041390;28;20007;-77
2021/01/21 04:52:07;;;;;;;;;;;;;;;3.76;80.00;96593.28;5045414;28;20004;-72
2021/01/21 04:54:38;;;;;;;;;;;;;;;3.78;80.04;96573.50;5047873;28;19921;-73
2021/01/21 04:57:06;;;;;;;;;;;;;;;3.79;79.86;96563.75;5042121;28;20274;-75
2021/01/21 04:59:34;;;;;;;;;;;;;;;3.80;80.37;96573.25;5043763;28;19924;-72
2021/01/21 05:02:00;;;;;;;;;;;;;;;3.80;80.08;96565.31;5042945;28;20361;-72
2021/01/21 05:04:26;;;;;;;;;;;;;;;3.80;80.36;96581.16;5043039;28;19929;-71
2021/01/21 05:06:53;;;;;;;;;;;;;;;3.79;80.66;96580.38;5045625;28;20271;-76
2021/01/21 05:09:19;;;;;;;;;;;;;;;3.84;80.65;96570.88;5041714;28;20019;-71
2021/01/21 05:11:45;;;;;;;;;;;;;;;3.84;80.66;96569.06;5044537;28;19916;-71
2021/01/21 05:14:10;;;;;;;;;;;;;;;3.87;80.82;96557.94;5044375;28;19921;-74
2021/01/21 05:16:36;;;;;;;;;;;;;;;3.87;80.89;96579.06;5047022;28;20007;-74
2021/01/21 05:19:01;;;;;;;;;;;;;;;3.89;80.93;96565.63;5038020;28;20000;-75
2021/01/21 05:21:26;;;;;;;;;;;;;;;3.91;81.13;96553.72;5048236;28;20016;-72
2021/01/21 05:23:55;;;;;;;;;;;;;;;3.95;81.12;96578.56;5047893;28;19920;-72
2021/01/21 05:26:20;;;;;;;;;;;;;;;3.94;81.12;96558.50;5048791;28;19921;-74
2021/01/21 05:28:47;;;;;;;;;;;;;;;3.97;80.77;96571.19;5044752;28;19962;-72
2021/01/21 05:31:12;;;;;;;;;;;;;;;3.99;81.42;96563.78;5046719;28;20402;-72
2021/01/21 05:33:37;;;;;;;;;;;;;;;3.99;80.87;96571.72;5046609;28;19942;-73
2021/01/21 05:36:04;;;;;;;;;;;;;;;4.01;80.93;96572.25;5041036;28;19951;-73
2021/01/21 05:38:30;;;;;;;;;;;;;;;4.01;80.85;96552.97;5045502;28;19923;-76
2021/01/21 05:40:57;;;;;;;;;;;;;;;4.02;81.19;96557.19;5044303;28;19932;-75
2021/01/21 05:43:22;;;;;;;;;;;;;;;4.04;81.40;96555.84;5043346;28;19917;-73
2021/01/21 05:45:48;;;;;;;;;;;;;;;4.07;81.02;96547.44;5048338;28;19924;-73
2021/01/21 05:48:13;;;;;;;;;;;;;;;4.08;81.40;96541.09;5046505;28;20374;-72
2021/01/21 05:50:39;;;;;;;;;;;;;;;4.11;81.30;96548.47;5045146;28;19965;-74
2021/01/21 05:53:08;;;;;;;;;;;;;;;4.14;80.89;96555.88;5047130;28;20012;-72
2021/01/21 05:55:35;;;;;;;;;;;;;;;4.17;81.03;96547.41;5047293;28;19925;-76
2021/01/21 05:58:00;;;;;;;;;;;;;;;4.18;81.02;96546.38;5041531;28;20414;-73
2021/01/21 06:00:26;;;;;;;;;;;;;;;4.21;81.67;96551.16;5049091;28;20050;-75
2021/01/21 06:02:52;;;;;;;;;;;;;;;4.23;81.27;96551.66;5041968;28;19925;-73
2021/01/21 06:05:19;;;;;;;;;;;;;;;4.24;81.84;96537.41;5046387;28;19929;-74
2021/01/21 06:07:48;;;;;;;;;;;;;;;4.27;81.42;96547.44;5042227;28;20029;-73
2021/01/21 06:10:14;;;;;;;;;;;;;;;4.31;81.51;96532.66;5043021;28;20015;-72
2021/01/21 06:12:43;;;;;;;;;;;;;;;4.34;81.76;96532.13;5057973;28;19946;-74
2021/01/21 06:15:11;;;;;;;;;;;;;;;4.35;81.51;96524.97;5043679;28;19929;-74
2021/01/21 06:17:36;;;;;;;;;;;;;;;4.38;81.37;96530.53;5042122;28;19921;-74
2021/01/21 06:20:02;;;;;;;;;;;;;;;4.41;81.36;96537.13;5043305;28;20397;-74
2021/01/21 06:22:29;;;;;;;;;;;;;;;4.44;81.48;96549.78;5047183;28;19924;-71
2021/01/21 06:24:57;;;;;;;;;;;;;;;4.45;81.51;96541.63;5045348;28;19970;-73
2021/01/21 06:27:23;;;;;;;;;;;;;;;4.49;81.32;96547.97;5044654;28;20272;-73
2021/01/21 06:29:49;;;;;;;;;;;;;;;4.52;81.46;96573.81;5042879;28;19955;-75
2021/01/21 06:32:16;;;;;;;;;;;;;;;4.56;81.81;96580.16;5041735;28;19929;-74
2021/01/21 06:34:42;;;;;;;;;;;;;;;4.61;81.36;96558.22;5060290;28;19924;-73
2021/01/21 06:37:12;;;;;;;;;;;;;;;4.64;81.99;96570.13;5043669;28;20448;-74
2021/01/21 06:39:37;;;;;;;;;;;;;;;4.67;81.27;96543.16;5044762;28;19929;-73
2021/01/21 06:42:04;;;;;;;;;;;;;;;4.70;81.56;96556.63;5044149;28;19951;-73
2021/01/21 06:44:29;;;;;;;;;;;;;;;4.73;81.70;96555.31;5045020;28;19917;-76
2021/01/21 06:46:55;;;;;;;;;;;;;;;4.74;81.51;96559.56;5043116;28;20622;-75
2021/01/21 06:49:21;;;;;;;;;;;;;;;4.76;81.61;96560.84;5045011;28;19921;-73
2021/01/21 06:51:47;;;;;;;;;;;;;;;4.78;81.48;96593.09;5043369;28;19929;-75
2021/01/21 06:54:13;;;;;;;;;;;;;;;4.81;82.07;96549.47;5031876;28;20061;-73
2021/01/21 06:56:39;;;;;;;;;;;;;;;4.83;81.40;96553.44;5034527;28;20263;-72
2021/01/21 06:59:04;;;;;;;;;;;;;;;4.86;81.90;96552.13;5031458;28;19936;-75
2021/01/21 07:01:29;;;;;;;;;;;;;;;4.88;81.74;96556.06;5034520;28;19932;-71
2021/01/21 07:03:55;;;;;;;;;;;;;;;4.92;81.62;96545.75;5035762;28;19973;-75
2021/01/21 07:06:20;;;;;;;;;;;;;;;4.92;82.23;96543.09;5034900;28;19924;-74
2021/01/21 07:09:05;;;;;;;;;;;;;;;4.94;81.66;96543.63;5032724;28;19920;-72
2021/01/21 07:11:32;;;;;;;;;;;;;;;4.97;81.74;96537.81;5033016;28;19964;-72
2021/01/21 07:13:58;;;;;;;;;;;;;;;4.99;82.33;96540.97;5031244;28;19932;-72
2021/01/21 07:16:24;;;;;;;;;;;;;;;5.01;81.68;96547.59;5032383;28;19928;-74
2021/01/21 07:18:51;;;;;;;;;;;;;;;5.02;82.26;96549.16;5032974;28;19935;-73
2021/01/21 07:21:16;;;;;;;;;;;;;;;5.06;81.57;96542.28;5047423;28;19968;-72
2021/01/21 07:23:49;;;;;;;;;;;;;;;5.07;81.80;96543.84;5035173;28;20029;-75
2021/01/21 07:26:17;;;;;;;;;;;;;;;5.08;81.78;96547.28;5035097;28;20498;-73
2021/01/21 07:29:01;;;;;;;;;;;;;;;5.09;82.10;96535.63;5035388;28;19920;-75
2021/01/21 07:31:27;;;;;;;;;;;;;;;5.10;81.72;96556.53;5032138;28;19929;-73
2021/01/21 07:34:11;;;;;;;;;;;;;;;5.11;82.10;96554.69;5031911;28;20271;-70
2021/01/21 07:36:36;;;;;;;;;;;;;;;5.13;81.85;96557.88;5040378;28;19987;-75
2021/01/21 07:39:02;;;;;;;;;;;;;;;5.13;82.23;96545.41;5032765;28;21658;-71
2021/01/21 07:41:53;;;;;;;;;;;;;;;5.15;82.42;96576.88;5029429;28;20700;-74
2021/01/21 07:44:18;;;;;;;;;;;;;;;5.17;81.83;96535.91;5033304;28;19939;-74
2021/01/21 07:46:43;;;;;;;;;;;;;;;5.19;81.70;96519.75;5029849;28;19928;-71
2021/01/21 07:49:21;;;;;;;;;;;;;;;5.22;82.50;96530.56;5032863;28;20581;-74
2021/01/21 07:51:58;;;;;;;;;;;;;;;5.23;82.18;96526.09;5029831;28;19955;-71
2021/01/21 07:54:24;;;;;;;;;;;;;;;5.26;82.01;96546.72;5037704;28;20421;-72
2021/01/21 07:56:50;;;;;;;;;;;;;;;5.25;81.69;96551.19;5047410;28;19927;-73
2021/01/21 07:59:16;;;;;;;;;;;;;;;5.27;81.69;96546.44;5048486;28;20341;-74
2021/01/21 08:01:56;;;;;;;;;;;;;;;5.30;81.90;96553.03;5044061;28;19929;-74
2021/01/21 08:04:21;;;;;;;;;;;;;;;5.30;82.10;96553.03;5045253;28;19921;-75
2021/01/21 08:06:54;;;;;;;;;;;;;;;5.34;82.23;96575.22;5038915;28;19924;-75
2021/01/21 08:09:21;;;;;;;;;;;;;;;5.36;82.17;96553.78;5034791;28;20379;-74
2021/01/21 08:11:47;;;;;;;;;;;;;;;5.38;81.58;96564.88;5042152;28;19928;-74
2021/01/21 08:14:12;;;;;;;;;;;;;;;5.41;81.78;96564.34;5044456;28;19925;-71
2021/01/21 08:16:37;;;;;;;;;;;;;;;5.41;81.92;96575.75;5043104;28;19970;-76
2021/01/21 08:19:02;;;;;;;;;;;;;;;5.45;82.14;96594.50;5048708;28;19928;-74
2021/01/21 08:21:28;;;;;;;;;;;;;;;5.45;81.44;96589.19;5044746;28;19944;-72
2021/01/21 08:23:58;;;;;;;;;;;;;;;5.47;81.96;96602.94;5046156;28;20298;-73
2021/01/21 08:26:25;;;;;;;;;;;;;;;5.49;81.99;96601.63;5038612;28;19917;-71
2021/01/21 08:28:50;;;;;;;;;;;;;;;5.50;81.10;96611.16;5046045;28;20287;-73
2021/01/21 08:31:16;;;;;;;;;;;;;;;5.52;81.90;96613.53;5048685;28;19943;-71
2021/01/21 08:33:43;;;;;;;;;;;;;;;5.54;81.16;96627.28;5047466;28;19925;-70
2021/01/21 08:36:11;;;;;;;;;;;;;;;5.57;81.89;96611.63;5047616;28;20363;-71
2021/01/21 08:38:40;;;;;;;;;;;;;;;5.59;81.17;96621.97;5048406;28;19970;-74
2021/01/21 08:41:06;;;;;;;;;;;;;;;5.58;82.03;96626.47;5043731;28;19917;-71
2021/01/21 08:43:32;;;;;;;;;;;;;;;5.61;82.00;96644.44;5046903;28;19924;-71
2021/01/21 08:45:57;;;;;;;;;;;;;;;5.61;81.60;96656.88;5045851;28;20329;-72
2021/01/21 08:48:30;;;;;;;;;;;;;;;5.61;82.18;96676.19;5048911;28;19924;-71
2021/01/21 08:50:55;;;;;;;;;;;;;;;5.61;82.32;96681.50;5048972;28;19921;-74
2021/01/21 08:53:21;;;;;;;;;;;;;;;5.64;82.32;96698.66;5048022;28;19917;-72
2021/01/21 08:55:48;;;;;;;;;;;;;;;5.65;81.82;96716.13;5046281;28;20014;-71
2021/01/21 08:58:14;;;;;;;;;;;;;;;5.63;82.01;96744.72;5051625;28;20305;-70
2021/01/21 09:00:59;;;;;;;;;;;;;;;5.62;83.06;96775.69;5053984;28;19930;-70
2021/01/21 09:03:31;;;;;;;;;;;;;;;5.62;84.19;96785.47;5054174;28;19917;-74
2021/01/21 09:05:56;;;;;;;;;;;;;;;5.58;85.60;96787.84;5050135;28;19916;-71
2021/01/21 09:08:22;;;;;;;;;;;;;;;5.52;85.39;96788.94;5053258;28;20432;-72
2021/01/21 09:10:47;;;;;;;;;;;;;;;5.49;85.81;96818.56;5050267;28;19968;-71
2021/01/21 09:13:18;;;;;;;;;;;;;;;5.45;87.06;96822.00;5051812;28;19928;-70
2021/01/21 09:15:52;;;;;;;;;;;;;;;5.41;87.57;96826.22;5043857;28;19920;-71
2021/01/21 09:18:17;;;;;;;;;;;;;;;5.37;87.68;96839.22;5049883;28;19917;-71
2021/01/21 09:20:43;;;;;;;;;;;;;;;5.37;88.31;96846.34;5053200;28;19931;-71
2021/01/21 09:23:15;;;;;;;;;;;;;;;5.33;88.32;96844.22;5050715;28;19956;-72
2021/01/21 09:25:40;;;;;;;;;;;;;;;5.28;88.41;96856.66;5051988;28;19917;-72
2021/01/21 09:28:09;;;;;;;;;;;;;;;5.25;87.98;96865.09;5049382;28;19920;-71
2021/01/21 09:30:34;;;;;;;;;;;;;;;5.23;88.83;96861.94;5053517;28;19917;-72
2021/01/21 09:32:59;;;;;;;;;;;;;;;5.17;89.00;96863.78;5048797;28;19944;-70
2021/01/21 09:35:24;;;;;;;;;;;;;;;5.13;88.99;96860.06;5052735;28;20412;-69
2021/01/21 09:37:50;;;;;;;;;;;;;;;5.12;88.24;96870.91;5050855;28;20389;-71
2021/01/21 09:40:17;;;;;;;;;;;;;;;5.09;88.81;96882.78;5052749;28;19921;-72
2021/01/21 09:42:42;;;;;;;;;;;;;;;5.08;89.05;96880.41;5048174;28;20324;-73
2021/01/21 09:45:10;;;;;;;;;;;;;;;5.06;88.73;96885.16;5053507;28;20023;-71
2021/01/21 09:47:35;;;;;;;;;;;;;;;5.03;87.92;96901.53;5052162;28;19917;-70
2021/01/21 09:50:01;;;;;;;;;;;;;;;5.01;88.64;96901.00;5048589;28;20416;-69
2021/01/21 09:52:26;;;;;;;;;;;;;;;4.98;88.02;96906.84;5040098;28;19970;-73
2021/01/21 09:54:52;;;;;;;;;;;;;;;4.97;88.60;96911.31;5052704;28;19925;-71
2021/01/21 09:57:17;;;;;;;;;;;;;;;4.95;87.71;96923.19;5046753;28;19920;-72
2021/01/21 09:59:42;;;;;;;;;;;;;;;4.88;88.52;96922.63;5047363;28;20328;-71
2021/01/21 10:02:08;;;;;;;;;;;;;;;4.87;88.45;96907.84;5043823;28;20007;-71
2021/01/21 10:04:36;;;;;;;;;;;;;;;4.87;88.26;96902.56;5048949;28;20286;-72
2021/01/21 10:07:02;;;;;;;;;;;;;;;4.85;88.54;96918.66;5046770;28;19920;-73
2021/01/21 10:09:27;;;;;;;;;;;;;;;4.86;88.79;96914.19;5052315;28;20360;-71
2021/01/21 10:11:52;;;;;;;;;;;;;;;4.83;88.67;96922.63;5047184;28;19921;-71
2021/01/21 10:14:18;;;;;;;;;;;;;;;4.80;88.32;96923.16;5047483;28;19950;-71
2021/01/21 10:16:43;;;;;;;;;;;;;;;4.78;88.53;96919.97;5047322;28;19917;-70
2021/01/21 10:19:09;;;;;;;;;;;;;;;4.77;87.73;96921.81;5055820;28;19916;-74
2021/01/21 10:21:35;;;;;;;;;;;;;;;4.77;87.87;96903.31;5051784;28;19935;-73
2021/01/21 10:24:00;;;;;;;;;;;;;;;4.78;87.62;96904.13;5046887;28;19917;-72
2021/01/21 10:26:25;;;;;;;;;;;;;;;4.79;87.49;96917.06;5058736;28;20003;-71
2021/01/21 10:28:50;;;;;;;;;;;;;;;4.80;87.73;96915.22;5067376;28;20262;-72
2021/01/21 10:31:16;;;;;;;;;;;;;;;4.80;88.32;96908.09;5052189;28;19944;-73
2021/01/21 10:33:43;;;;;;;;;;;;;;;4.80;88.55;96896.72;5059165;28;19967;-71
2021/01/21 10:36:08;;;;;;;;;;;;;;;4.79;88.49;96893.28;5046456;28;19932;-73
2021/01/21 10:38:34;;;;;;;;;;;;;;;4.79;89.19;96903.03;5052006;28;19916;-71
2021/01/21 10:40:59;;;;;;;;;;;;;;;4.79;89.30;96903.03;5048603;28;19924;-70
2021/01/21 10:43:24;;;;;;;;;;;;;;;4.79;89.19;96909.13;5053048;28;20337;-72
2021/01/21 10:45:50;;;;;;;;;;;;;;;4.79;90.08;96918.91;5050090;28;19920;-72
2021/01/21 10:48:15;;;;;;;;;;;;;;;4.78;89.75;96910.19;5049288;28;19924;-71
2021/01/21 10:50:41;;;;;;;;;;;;;;;4.78;90.15;96925.25;5051270;28;19923;-70
2021/01/21 10:53:06;;;;;;;;;;;;;;;4.77;90.06;96919.16;5047132;28;19921;-72
2021/01/21 10:55:32;;;;;;;;;;;;;;;4.73;89.55;96904.88;5048102;28;20369;-75
2021/01/21 10:57:59;;;;;;;;;;;;;;;4.71;89.65;96914.13;5046551;28;20425;-70
2021/01/21 11:00:24;;;;;;;;;;;;;;;4.69;89.94;96905.66;5042222;28;19920;-72
2021/01/21 11:02:49;;;;;;;;;;;;;;;4.70;89.84;96907.25;5043473;28;20313;-70
2021/01/21 11:05:15;;;;;;;;;;;;;;;4.68;90.32;96889.00;5045349;28;20016;-71
2021/01/21 11:07:40;;;;;;;;;;;;;;;4.66;90.17;96885.03;5047089;28;19917;-74
2021/01/21 11:10:06;;;;;;;;;;;;;;;4.66;89.70;96882.38;5044825;28;19917;-72
2021/01/21 11:12:31;;;;;;;;;;;;;;;4.62;90.15;96895.34;5042471;28;19920;-73
2021/01/21 11:14:57;;;;;;;;;;;;;;;4.60;89.98;96888.72;5048118;28;20020;-73
2021/01/21 11:17:22;;;;;;;;;;;;;;;4.59;90.98;96877.34;5048890;28;19975;-73
2021/01/21 11:19:47;;;;;;;;;;;;;;;4.61;90.46;96869.94;5050445;28;19929;-73
2021/01/21 11:22:13;;;;;;;;;;;;;;;4.60;90.77;96865.75;5043148;28;19928;-73
2021/01/21 11:24:39;;;;;;;;;;;;;;;4.60;90.30;96889.50;5046775;28;19921;-74
2021/01/21 11:27:04;;;;;;;;;;;;;;;4.61;90.15;96900.88;5041908;28;20374;-75
2021/01/21 11:29:29;;;;;;;;;;;;;;;4.63;89.90;96883.69;5043719;28;19916;-74
2021/01/21 11:31:54;;;;;;;;;;;;;;;4.64;90.54;96868.66;5045829;28;19931;-73
2021/01/21 11:34:20;;;;;;;;;;;;;;;4.65;90.43;96876.34;5048694;28;20023;-72
2021/01/21 11:36:45;;;;;;;;;;;;;;;4.62;89.81;96879.47;5052074;28;19928;-73
2021/01/21 11:39:11;;;;;;;;;;;;;;;4.64;89.65;96855.44;5041736;28;19963;-72
2021/01/21 11:41:36;;;;;;;;;;;;;;;4.65;89.27;96876.34;5049701;28;19923;-72
2021/01/21 11:44:02;;;;;;;;;;;;;;;4.65;89.03;96897.47;5054287;28;19920;-73
2021/01/21 11:46:27;;;;;;;;;;;;;;;4.64;89.36;96885.31;5050630;28;19925;-73
2021/01/21 11:48:52;;;;;;;;;;;;;;;4.65;88.61;96894.81;5053916;28;19979;-73
2021/01/21 11:51:18;;;;;;;;;;;;;;;4.67;88.76;96899.84;5048708;28;19929;-73
2021/01/21 11:53:44;;;;;;;;;;;;;;;4.68;88.54;96898.78;5046499;28;19917;-73
2021/01/21 11:56:10;;;;;;;;;;;;;;;4.67;87.80;96915.69;5045791;28;21368;-75
2021/01/21 11:58:36;;;;;;;;;;;;;;;4.64;87.92;96892.44;5042727;28;19921;-74
2021/01/21 12:01:01;;;;;;;;;;;;;;;4.67;88.53;96881.34;5046691;28;19920;-74
2021/01/21 12:03:27;;;;;;;;;;;;;;;4.73;88.46;96869.75;5046779;28;19921;-75
2021/01/21 12:05:52;;;;;;;;;;;;;;;4.74;88.07;96881.91;5042439;28;19928;-75
2021/01/21 12:08:17;;;;;;;;;;;;;;;4.75;87.70;96873.72;5048485;28;20370;-72
2021/01/21 12:10:42;;;;;;;;;;;;;;;4.80;87.74;96867.66;5047365;28;20457;-75
2021/01/21 12:13:08;;;;;;;;;;;;;;;4.84;88.55;96850.22;5063068;28;19975;-73
2021/01/21 12:15:33;;;;;;;;;;;;;;;4.89;87.68;96858.16;5040734;28;19968;-74
2021/01/21 12:17:58;;;;;;;;;;;;;;;4.95;88.14;96867.69;5048501;28;19968;-73
2021/01/21 12:20:23;;;;;;;;;;;;;;;4.98;87.34;96875.13;5042723;28;19920;-73
2021/01/21 12:22:49;;;;;;;;;;;;;;;5.03;87.53;96864.53;5045994;28;19966;-72
2021/01/21 12:25:14;;;;;;;;;;;;;;;5.05;87.51;96841.25;5048715;28;19971;-72
2021/01/21 12:27:40;;;;;;;;;;;;;;;5.07;87.22;96839.16;5042180;28;19944;-72
2021/01/21 12:30:05;;;;;;;;;;;;;;;5.10;87.18;96857.16;5045156;28;19917;-71
2021/01/21 12:32:30;;;;;;;;;;;;;;;5.10;87.64;96857.94;5047974;28;21670;-71
2021/01/21 12:34:56;;;;;;;;;;;;;;;5.12;87.32;96853.19;5047189;28;19928;-73
2021/01/21 12:37:21;;;;;;;;;;;;;;;5.13;87.52;96849.47;5048991;28;19963;-75
2021/01/21 12:39:47;;;;;;;;;;;;;;;5.15;86.72;96833.38;5050124;28;19927;-72
2021/01/21 12:42:13;;;;;;;;;;;;;;;5.18;87.57;96835.47;5049859;28;20063;-72
2021/01/21 12:44:40;;;;;;;;;;;;;;;5.20;86.76;96834.16;5047932;28;19929;-72
2021/01/21 12:47:05;;;;;;;;;;;;;;;5.23;86.72;96830.19;5041820;28;19917;-73
2021/01/21 12:49:31;;;;;;;;;;;;;;;5.23;87.26;96833.63;5050161;28;19928;-71
2021/01/21 12:51:56;;;;;;;;;;;;;;;5.26;86.23;96837.59;5044511;28;20350;-72
2021/01/21 12:54:21;;;;;;;;;;;;;;;5.28;86.72;96840.78;5058534;28;20404;-73